createdAt,value
2023-04-19T00:00:35.471Z,102131.22
2023-04-19T00:03:03.114Z,102135.66
2023-04-19T00:05:30.061Z,102127.31
2023-04-19T00:07:56.951Z,102130.13
2023-04-19T00:10:23.985Z,102126.19
2023-04-19T00:12:50.749Z,102124.38
2023-04-19T00:15:17.877Z,102129.63
2023-04-19T00:17:45.060Z,102117.31
2023-04-19T00:20:13.468Z,102124.25
2023-04-19T00:22:41.639Z,102118.84
2023-04-19T00:25:08.693Z,102117.13
2023-04-19T00:27:36.274Z,102119.09
2023-04-19T00:30:03.366Z,102119.69
2023-04-19T00:32:31.091Z,102128.19
2023-04-19T00:34:57.933Z,102116.84
2023-04-19T00:37:24.854Z,102119.56
2023-04-19T00:39:51.721Z,102121.56
2023-04-19T00:42:19.409Z,102108.78
2023-04-19T00:44:47.050Z,102118.38
2023-04-19T00:47:15.561Z,102123.69
2023-04-19T00:49:42.351Z,102112.53
2023-04-19T00:52:09.982Z,102114.03
2023-04-19T00:54:37.852Z,102117.44
2023-04-19T00:57:04.797Z,102114.28
2023-04-19T00:59:31.760Z,102110.38
2023-04-19T01:01:58.833Z,102112.91
2023-04-19T01:04:29.596Z,102117.13
2023-04-19T01:06:56.491Z,102117.41
2023-04-19T01:09:23.418Z,102118.59
2023-04-19T01:11:50.978Z,102105.25
2023-04-19T01:14:18.068Z,102112.28
2023-04-19T01:16:46.704Z,102104.16
2023-04-19T01:19:13.493Z,102105.66
2023-04-19T01:21:40.657Z,102098.16
2023-04-19T01:24:07.501Z,102102.56
2023-04-19T01:26:34.293Z,102108.84
2023-04-19T01:29:02.770Z,102114.28
2023-04-19T01:31:29.529Z,102116.16
2023-04-19T01:33:56.386Z,102112.50
2023-04-19T01:36:23.344Z,102109.28
2023-04-19T01:38:50.450Z,102100.50
2023-04-19T01:41:17.505Z,102101.84
2023-04-19T01:43:44.367Z,102095.00
2023-04-19T01:46:11.394Z,102096.13
2023-04-19T01:48:38.229Z,102097.91
2023-04-19T01:51:05.197Z,102098.09
2023-04-19T01:53:34.503Z,102106.41
2023-04-19T01:56:01.461Z,102106.41
2023-04-19T01:58:28.161Z,102099.63
2023-04-19T02:00:55.260Z,102095.88
2023-04-19T02:03:22.356Z,102098.31
2023-04-19T02:05:49.668Z,102098.63
2023-04-19T02:08:16.926Z,102092.25
2023-04-19T02:10:43.719Z,102089.00
2023-04-19T02:13:10.576Z,102096.13
2023-04-19T02:15:37.624Z,102083.63
2023-04-19T02:18:07.064Z,102080.63
2023-04-19T02:20:34.293Z,102086.06
2023-04-19T02:23:01.044Z,102083.66
2023-04-19T02:25:28.062Z,102084.00
2023-04-19T02:27:55.097Z,102086.22
2023-04-19T02:30:22.253Z,102086.63
2023-04-19T02:32:50.585Z,102085.97
2023-04-19T02:35:17.646Z,102086.72
2023-04-19T02:37:44.644Z,102083.56
2023-04-19T02:40:12.264Z,102077.97
2023-04-19T02:42:39.129Z,102086.78
2023-04-19T02:45:06.772Z,102076.06
2023-04-19T02:47:33.543Z,102071.13
2023-04-19T02:50:00.595Z,102065.63
2023-04-19T02:52:27.941Z,102069.50
2023-04-19T02:54:55.523Z,102072.00
2023-04-19T02:57:22.438Z,102065.59
2023-04-19T02:59:49.500Z,102071.91
2023-04-19T03:02:16.667Z,102064.91
2023-04-19T03:04:44.202Z,102059.13
2023-04-19T03:07:11.351Z,102064.59
2023-04-19T03:09:39.728Z,102062.31
2023-04-19T03:12:08.243Z,102065.50
2023-04-19T03:14:34.996Z,102065.91
2023-04-19T03:17:02.010Z,102069.38
2023-04-19T03:19:29.526Z,102065.31
2023-04-19T03:21:57.013Z,102064.59
2023-04-19T03:24:30.566Z,102061.66
2023-04-19T03:26:59.534Z,102057.84
2023-04-19T03:29:29.514Z,102056.00
2023-04-19T03:32:11.532Z,102064.16
2023-04-19T03:34:38.511Z,102056.56
2023-04-19T03:37:05.321Z,102055.69
2023-04-19T03:39:32.810Z,102051.97
2023-04-19T03:42:03.703Z,102060.38
2023-04-19T03:44:42.827Z,102058.56
2023-04-19T03:47:10.546Z,102053.69
2023-04-19T03:49:42.970Z,102052.25
2023-04-19T03:52:10.257Z,102054.31
2023-04-19T03:54:37.229Z,102054.50
2023-04-19T03:57:07.797Z,102041.38
2023-04-19T03:59:38.389Z,102053.19
2023-04-19T04:02:06.987Z,102054.16
2023-04-19T04:04:34.243Z,102045.69
2023-04-19T04:07:01.644Z,102044.53
2023-04-19T04:09:28.584Z,102058.31
2023-04-19T04:11:55.510Z,102052.09
2023-04-19T04:14:22.502Z,102059.13
2023-04-19T04:16:49.774Z,102054.00
2023-04-19T04:19:17.432Z,102052.59
2023-04-19T04:21:44.994Z,102053.50
2023-04-19T04:24:12.609Z,102054.22
2023-04-19T04:26:54.447Z,102057.47
2023-04-19T04:29:29.091Z,102061.63
2023-04-19T04:31:58.968Z,102069.38
2023-04-19T04:34:31.450Z,102056.44
2023-04-19T04:37:05.847Z,102060.19
2023-04-19T04:39:35.204Z,102067.50
2023-04-19T04:42:03.283Z,102075.81
2023-04-19T04:44:30.086Z,102066.84
2023-04-19T04:46:57.060Z,102063.88
2023-04-19T04:49:27.155Z,102080.19
2023-04-19T04:51:53.894Z,102080.25
2023-04-19T04:54:24.310Z,102081.88
2023-04-19T04:56:51.808Z,102073.91
2023-04-19T04:59:19.164Z,102079.69
2023-04-19T05:01:48.916Z,102079.69
2023-04-19T05:04:16.860Z,102080.69
2023-04-19T05:06:44.686Z,102081.13
2023-04-19T05:09:13.160Z,102072.63
2023-04-19T05:11:40.191Z,102077.69
2023-04-19T05:14:07.019Z,102074.34
2023-04-19T05:16:34.560Z,102076.16
2023-04-19T05:19:03.006Z,102081.97
2023-04-19T05:21:34.997Z,102082.97
2023-04-19T05:24:04.444Z,102080.03
2023-04-19T05:26:33.270Z,102078.28
2023-04-19T05:29:00.786Z,102083.25
2023-04-19T05:31:47.847Z,102085.06
2023-04-19T05:34:28.038Z,102089.59
2023-04-19T05:36:56.758Z,102086.00
2023-04-19T05:39:23.817Z,102091.59
2023-04-19T05:41:52.231Z,102092.38
2023-04-19T05:44:19.124Z,102086.69
2023-04-19T05:46:45.975Z,102090.13
2023-04-19T05:49:17.517Z,102091.22
2023-04-19T05:52:14.166Z,102095.03
2023-04-19T05:54:47.420Z,102093.25
2023-04-19T05:57:14.600Z,102093.34
2023-04-19T05:59:41.486Z,102094.75
2023-04-19T06:02:09.831Z,102098.47
2023-04-19T06:04:37.386Z,102097.22
2023-04-19T06:07:06.148Z,102086.97
2023-04-19T06:09:35.104Z,102098.59
2023-04-19T06:12:02.053Z,102105.25
2023-04-19T06:14:29.724Z,102096.63
2023-04-19T06:16:57.181Z,102091.81
2023-04-19T06:19:24.297Z,102096.84
2023-04-19T06:21:51.411Z,102096.38
2023-04-19T06:24:18.465Z,102095.47
2023-04-19T06:26:45.740Z,102092.75
2023-04-19T06:29:12.719Z,102096.44
2023-04-19T06:31:39.967Z,102087.75
2023-04-19T06:34:06.751Z,102091.88
2023-04-19T06:36:33.947Z,102089.38
2023-04-19T06:39:00.779Z,102095.91
2023-04-19T06:41:27.668Z,102089.56
2023-04-19T06:43:54.488Z,102086.22
2023-04-19T06:46:21.499Z,102079.16
2023-04-19T06:48:48.345Z,102085.75
2023-04-19T06:51:15.272Z,102087.38
2023-04-19T06:53:42.050Z,102089.03
2023-04-19T06:56:10.497Z,102079.06
2023-04-19T06:58:37.390Z,102090.97
2023-04-19T07:01:04.857Z,102091.47
2023-04-19T07:03:32.368Z,102082.16
2023-04-19T07:05:59.541Z,102085.50
2023-04-19T07:08:42.302Z,102081.09
2023-04-19T07:11:20.253Z,102082.00
2023-04-19T07:13:47.903Z,102085.72
2023-04-19T07:16:15.235Z,102091.88
2023-04-19T07:18:44.216Z,102083.94
2023-04-19T07:21:12.155Z,102088.53
2023-04-19T07:23:40.706Z,102080.41
2023-04-19T07:26:10.969Z,102081.00
2023-04-19T07:28:45.184Z,102086.50
2023-04-19T07:31:18.705Z,102080.72
2023-04-19T07:33:46.346Z,102073.53
2023-04-19T07:36:13.677Z,102088.22
2023-04-19T07:38:41.496Z,102081.47
2023-04-19T07:41:09.213Z,102077.25
2023-04-19T07:43:39.128Z,102071.19
2023-04-19T07:46:13.844Z,102079.75
2023-04-19T07:48:41.006Z,102088.81
2023-04-19T07:51:16.577Z,102083.13
2023-04-19T07:53:44.228Z,102081.47
2023-04-19T07:56:13.030Z,102086.63
2023-04-19T07:58:41.508Z,102075.06
2023-04-19T08:01:08.952Z,102087.75
2023-04-19T08:03:36.488Z,102089.84
2023-04-19T08:06:09.821Z,102081.78
2023-04-19T08:08:37.552Z,102083.22
2023-04-19T08:11:06.649Z,102077.66
2023-04-19T08:13:39.951Z,102087.91
2023-04-19T08:16:41.812Z,102079.25
2023-04-19T08:19:04.242Z,102058.50
2023-04-19T08:21:42.194Z,102079.59
2023-04-19T08:24:20.532Z,102068.75
2023-04-19T08:27:01.758Z,102081.63
2023-04-19T08:29:52.979Z,102068.19
2023-04-19T08:32:29.605Z,102057.69
2023-04-19T08:34:59.469Z,102070.28
2023-04-19T08:37:26.567Z,102072.22
2023-04-19T08:39:55.153Z,102059.69
2023-04-19T08:42:33.001Z,102062.97
2023-04-19T08:47:44.839Z,102049.06
2023-04-19T08:50:32.453Z,102065.22
2023-04-19T08:53:21.041Z,102060.03
2023-04-19T08:58:30.774Z,102059.84
2023-04-19T09:01:26.223Z,102051.78
2023-04-19T09:04:10.431Z,102045.91
2023-04-19T09:06:49.569Z,102045.50
2023-04-19T09:09:33.940Z,102059.84
2023-04-19T09:12:04.982Z,102056.50
2023-04-19T09:14:32.121Z,102060.41
2023-04-19T09:17:17.908Z,102046.38
2023-04-19T09:19:49.556Z,102042.19
2023-04-19T09:22:18.063Z,102044.81
2023-04-19T09:25:22.797Z,102047.63
2023-04-19T09:27:36.677Z,102034.63
2023-04-19T09:30:05.294Z,102045.00
2023-04-19T09:32:47.764Z,102032.78
2023-04-19T09:35:17.213Z,102049.91
2023-04-19T09:38:05.383Z,102045.19
2023-04-19T09:40:34.204Z,102037.78
2023-04-19T09:43:23.093Z,102042.94
2023-04-19T09:45:50.333Z,102024.91
2023-04-19T09:48:17.272Z,102030.69
2023-04-19T09:51:02.321Z,102021.28
2023-04-19T09:53:35.379Z,102014.50
2023-04-19T09:56:03.898Z,102016.63
2023-04-19T09:58:46.156Z,102015.06
2023-04-19T10:01:22.592Z,102017.53
2023-04-19T10:03:55.957Z,102012.19
2023-04-19T10:08:56.104Z,101994.63
2023-04-19T10:11:23.835Z,102008.84
2023-04-19T10:13:56.871Z,101997.06
2023-04-19T10:16:24.765Z,101994.59
2023-04-19T10:18:53.325Z,101979.94
2023-04-19T10:21:21.275Z,101993.97
2023-04-19T10:23:48.669Z,101994.59
2023-04-19T10:26:16.324Z,101968.19
2023-04-19T10:28:43.420Z,101976.78
2023-04-19T10:31:13.438Z,101983.09
2023-04-19T10:33:41.801Z,101994.84
2023-04-19T10:36:10.997Z,101964.78
2023-04-19T10:38:55.834Z,101961.44
2023-04-19T10:41:23.175Z,101970.56
2023-04-19T10:43:59.153Z,101978.66
2023-04-19T10:46:26.503Z,101972.72
2023-04-19T10:49:00.981Z,101971.06
2023-04-19T10:51:37.080Z,101965.88
2023-04-19T10:54:07.858Z,101966.00
2023-04-19T11:02:56.979Z,101958.88
2023-04-19T11:05:32.228Z,101947.97
2023-04-19T11:07:59.436Z,101940.38
2023-04-19T11:10:36.134Z,101936.78
2023-04-19T11:15:45.716Z,101942.72
2023-04-19T11:21:52.082Z,101937.03
2023-04-19T11:24:21.698Z,101927.09
2023-04-19T11:26:55.560Z,101924.16
2023-04-19T11:29:54.742Z,101933.13
2023-04-19T11:32:22.885Z,101901.03
2023-04-19T11:34:49.951Z,101922.53
2023-04-19T11:37:17.075Z,101927.75
2023-04-19T11:39:48.319Z,101913.00
2023-04-19T11:42:20.495Z,101909.53
2023-04-19T11:44:53.352Z,101894.63
2023-04-19T11:47:21.381Z,101901.91
2023-04-19T11:49:48.375Z,101893.16
2023-04-19T11:52:22.175Z,101899.44
2023-04-19T11:54:50.790Z,101906.91
2023-04-19T11:57:42.295Z,101897.88
2023-04-19T12:00:13.148Z,101886.59
2023-04-19T12:02:42.630Z,101870.28
2023-04-19T12:05:14.741Z,101874.22
2023-04-19T12:08:04.164Z,101902.13
2023-04-19T12:10:32.288Z,101877.56
2023-04-19T12:12:59.436Z,101891.50
2023-04-19T12:15:45.741Z,101882.06
2023-04-19T12:18:13.159Z,101893.94
2023-04-19T12:20:46.872Z,101890.94
2023-04-19T12:23:15.733Z,101897.44
2023-04-19T12:25:55.174Z,101900.66
2023-04-19T12:28:25.503Z,101891.16
2023-04-19T12:30:53.161Z,101898.75
2023-04-19T12:33:21.214Z,101892.16
2023-04-19T12:35:49.590Z,101871.03
2023-04-19T12:38:17.575Z,101877.94
2023-04-19T12:40:46.023Z,101856.66
2023-04-19T12:43:18.816Z,101877.59
2023-04-19T12:48:40.313Z,101856.63
2023-04-19T12:51:07.953Z,101861.56
2023-04-19T12:53:35.312Z,101887.28
2023-04-19T12:56:04.240Z,101864.19
2023-04-19T12:58:32.312Z,101864.00
2023-04-19T13:01:01.654Z,101867.16
2023-04-19T13:03:33.448Z,101871.22
2023-04-19T13:06:01.218Z,101854.44
2023-04-19T13:08:43.411Z,101864.31
2023-04-19T13:11:12.706Z,101859.88
2023-04-19T13:13:39.506Z,101845.31
2023-04-19T13:16:08.081Z,101863.66
2023-04-19T13:18:35.291Z,101863.34
2023-04-19T13:21:02.469Z,101854.84
2023-04-19T13:23:29.674Z,101850.34
2023-04-19T13:25:56.819Z,101857.34
2023-04-19T13:28:24.400Z,101864.72
2023-04-19T13:30:51.416Z,101841.13
2023-04-19T13:33:18.819Z,101852.09
2023-04-19T13:35:46.246Z,101833.56
2023-04-19T13:38:13.178Z,101822.59
2023-04-19T13:40:40.186Z,101825.09
2023-04-19T13:43:07.190Z,101817.78
2023-04-19T13:45:34.165Z,101810.44
2023-04-19T13:48:01.152Z,101808.25
2023-04-19T13:50:28.740Z,101804.44
2023-04-19T13:52:55.669Z,101794.00
2023-04-19T13:55:22.533Z,101798.28
2023-04-19T13:57:49.401Z,101802.88
2023-04-19T14:00:16.660Z,101812.03
2023-04-19T14:02:45.429Z,101805.78
2023-04-19T14:05:12.495Z,101798.38
2023-04-19T14:07:40.629Z,101790.72
2023-04-19T14:10:09.124Z,101790.22
2023-04-19T14:12:36.324Z,101786.63
2023-04-19T14:15:04.199Z,101789.34
2023-04-19T14:17:31.105Z,101780.59
2023-04-19T14:19:57.966Z,101784.56
2023-04-19T14:22:24.996Z,101775.28
2023-04-19T14:24:52.016Z,101790.91
2023-04-19T14:27:25.242Z,101769.13
2023-04-19T14:29:52.092Z,101770.13
2023-04-19T14:32:25.858Z,101777.28
2023-04-19T14:34:54.102Z,101778.38
2023-04-19T14:37:21.729Z,101774.69
2023-04-19T14:39:48.880Z,101751.66
2023-04-19T14:42:16.590Z,101755.63
2023-04-19T14:44:43.999Z,101765.13
2023-04-19T14:47:11.539Z,101764.34
2023-04-19T14:49:38.452Z,101752.78
2023-04-19T14:52:05.886Z,101763.19
2023-04-19T14:54:32.885Z,101763.69
2023-04-19T14:57:00.041Z,101770.03
2023-04-19T14:59:29.403Z,101761.13
2023-04-19T15:01:57.064Z,101753.94
2023-04-19T15:04:24.187Z,101745.53
2023-04-19T15:06:51.229Z,101757.56
2023-04-19T15:09:18.552Z,101757.81
2023-04-19T15:11:45.758Z,101755.38
2023-04-19T15:14:12.557Z,101749.03
2023-04-19T15:16:39.492Z,101734.84
2023-04-19T15:19:07.716Z,101742.19
2023-04-19T15:21:35.023Z,101737.59
2023-04-19T15:24:01.915Z,101737.84
2023-04-19T15:26:28.948Z,101740.41
2023-04-19T15:28:56.573Z,101735.72
2023-04-19T15:31:25.293Z,101732.91
2023-04-19T15:33:52.682Z,101728.03
2023-04-19T15:36:19.599Z,101731.97
2023-04-19T15:38:46.532Z,101735.66
2023-04-19T15:41:13.356Z,101737.69
2023-04-19T15:43:40.839Z,101732.72
2023-04-19T15:46:11.969Z,101737.84
2023-04-19T15:48:39.309Z,101725.06
2023-04-19T15:51:07.199Z,101725.22
2023-04-19T15:53:34.558Z,101720.97
2023-04-19T15:56:01.542Z,101720.72
2023-04-19T15:58:28.574Z,101723.03
2023-04-19T16:00:55.444Z,101718.72
2023-04-19T16:03:22.488Z,101717.56
2023-04-19T16:05:51.722Z,101719.28
2023-04-19T16:08:21.859Z,101726.94
2023-04-19T16:10:49.289Z,101711.38
2023-04-19T16:13:16.697Z,101717.81
2023-04-19T16:15:44.419Z,101728.03
2023-04-19T16:18:13.117Z,101719.09
2023-04-19T16:20:43.063Z,101718.97
2023-04-19T16:23:10.085Z,101725.81
2023-04-19T16:25:41.679Z,101721.53
2023-04-19T16:28:08.469Z,101718.97
2023-04-19T16:30:35.432Z,101710.47
2023-04-19T16:33:02.502Z,101706.94
2023-04-19T16:35:29.440Z,101718.72
2023-04-19T16:37:57.802Z,101701.94
2023-04-19T16:40:24.924Z,101707.22
2023-04-19T16:42:51.940Z,101714.63
2023-04-19T16:45:19.103Z,101700.72
2023-04-19T16:47:46.326Z,101711.06
2023-04-19T16:50:14.303Z,101709.00
2023-04-19T16:52:41.802Z,101713.81
2023-04-19T16:55:09.536Z,101710.59
2023-04-19T16:57:37.042Z,101715.63
2023-04-19T17:00:06.072Z,101710.91
2023-04-19T17:02:33.737Z,101707.34
2023-04-19T17:05:03.632Z,101707.88
2023-04-19T17:07:30.465Z,101712.63
2023-04-19T17:09:59.040Z,101712.97
2023-04-19T17:12:26.078Z,101710.13
2023-04-19T17:14:52.933Z,101710.41
2023-04-19T17:17:21.463Z,101713.47
2023-04-19T17:19:48.370Z,101719.38
2023-04-19T17:22:16.343Z,101717.56
2023-04-19T17:24:43.333Z,101709.13
2023-04-19T17:27:10.733Z,101715.47
2023-04-19T17:29:37.907Z,101704.78
2023-04-19T17:32:06.432Z,101699.56
2023-04-19T17:34:36.990Z,101698.09
2023-04-19T17:37:05.019Z,101691.97
2023-04-19T17:39:34.071Z,101716.28
2023-04-19T17:42:02.052Z,101710.72
2023-04-19T17:44:28.991Z,101706.16
2023-04-19T17:46:57.104Z,101707.00
2023-04-19T17:49:24.961Z,101707.56
2023-04-19T17:51:53.220Z,101706.44
2023-04-19T17:54:20.811Z,101710.75
2023-04-19T17:56:47.719Z,101699.00
2023-04-19T17:59:14.863Z,101700.81
2023-04-19T18:01:41.866Z,101702.25
2023-04-19T18:04:09.084Z,101696.66
2023-04-19T18:06:36.148Z,101696.63
2023-04-19T18:09:03.275Z,101705.16
2023-04-19T18:11:30.346Z,101708.50
2023-04-19T18:13:57.305Z,101680.28
2023-04-19T18:16:24.627Z,101700.16
2023-04-19T18:18:51.559Z,101697.72
2023-04-19T18:21:18.734Z,101691.97
2023-04-19T18:23:45.914Z,101696.44
2023-04-19T18:26:12.814Z,101703.47
2023-04-19T18:28:42.497Z,101700.63
2023-04-19T18:31:09.612Z,101699.66
2023-04-19T18:33:36.579Z,101705.78
2023-04-19T18:36:04.211Z,101719.44
2023-04-19T18:38:31.180Z,101709.63
2023-04-19T18:40:58.706Z,101716.69
2023-04-19T18:43:26.357Z,101709.31
2023-04-19T18:45:56.936Z,101727.94
2023-04-19T18:48:29.466Z,101727.16
2023-04-19T18:50:57.320Z,101727.63
2023-04-19T18:53:27.755Z,101726.84
2023-04-19T18:55:58.522Z,101726.38
2023-04-19T18:58:29.503Z,101730.06
2023-04-19T19:00:57.095Z,101739.34
2023-04-19T19:05:55.970Z,101735.16
2023-04-19T19:08:22.913Z,101738.53
2023-04-19T19:11:14.282Z,101746.59
2023-04-19T19:13:37.087Z,101740.31
2023-04-19T19:16:05.610Z,101749.28
2023-04-19T19:18:33.267Z,101741.28
2023-04-19T19:21:03.292Z,101744.16
2023-04-19T19:23:35.899Z,101748.19
2023-04-19T19:26:06.335Z,101749.00
2023-04-19T19:28:36.227Z,101745.78
2023-04-19T19:31:03.164Z,101747.38
2023-04-19T19:33:32.017Z,101743.84
2023-04-19T19:35:59.528Z,101755.72
2023-04-19T19:38:26.265Z,101754.28
2023-04-19T19:41:30.927Z,101756.66
2023-04-19T19:43:40.637Z,101747.06
2023-04-19T19:46:08.066Z,101742.34
2023-04-19T19:48:40.749Z,101748.88
2023-04-19T19:51:36.230Z,101754.59
2023-04-19T19:53:56.729Z,101762.66
2023-04-19T19:56:24.504Z,101753.72
2023-04-19T19:58:52.143Z,101755.50
2023-04-19T20:01:22.366Z,101754.63
2023-04-19T20:03:50.323Z,101759.47
2023-04-19T20:07:03.401Z,101754.84
2023-04-19T20:09:04.660Z,101756.53
2023-04-19T20:11:31.498Z,101765.91
2023-04-19T20:13:58.239Z,101762.03
2023-04-19T20:16:25.302Z,101759.06
2023-04-19T20:18:52.725Z,101758.44
2023-04-19T20:21:20.788Z,101760.63
2023-04-19T20:23:47.660Z,101768.38
2023-04-19T20:26:14.469Z,101770.22
2023-04-19T20:28:41.626Z,101765.31
2023-04-19T20:31:08.852Z,101773.50
2023-04-19T20:33:35.644Z,101766.09
2023-04-19T20:36:03.751Z,101768.13
2023-04-19T20:38:31.959Z,101777.06
2023-04-19T20:40:58.722Z,101765.25
2023-04-19T20:43:25.567Z,101769.66
2023-04-19T20:45:52.486Z,101783.44
2023-04-19T20:48:19.363Z,101771.44
2023-04-19T20:50:46.148Z,101778.28
2023-04-19T20:53:12.936Z,101771.31
2023-04-19T20:55:40.050Z,101775.69
2023-04-19T20:58:06.791Z,101767.09
2023-04-19T21:00:33.659Z,101773.19
2023-04-19T21:03:00.806Z,101773.84
2023-04-19T21:05:27.920Z,101773.03
2023-04-19T21:07:54.938Z,101774.59
2023-04-19T21:10:24.517Z,101770.03
2023-04-19T21:12:51.940Z,101768.16
2023-04-19T21:15:18.722Z,101770.06
2023-04-19T21:17:46.375Z,101769.41
2023-04-19T21:20:14.616Z,101765.88
2023-04-19T21:22:42.393Z,101771.09
2023-04-19T21:25:10.539Z,101775.09
2023-04-19T21:27:37.450Z,101781.50
2023-04-19T21:30:05.715Z,101776.03
2023-04-19T21:32:33.391Z,101777.75
2023-04-19T21:35:01.336Z,101763.78
2023-04-19T21:37:28.773Z,101770.97
2023-04-19T21:40:07.009Z,101770.88
2023-04-19T21:42:33.784Z,101767.53
2023-04-19T21:45:00.518Z,101771.38
2023-04-19T21:47:27.687Z,101775.66
2023-04-19T21:49:56.569Z,101775.09
2023-04-19T21:52:23.384Z,101776.06
2023-04-19T21:54:50.149Z,101769.19
2023-04-19T21:57:19.452Z,101782.16
2023-04-19T21:59:46.252Z,101776.09
2023-04-19T22:02:13.326Z,101786.91
2023-04-19T22:04:42.807Z,101780.78
2023-04-19T22:07:12.440Z,101776.66
2023-04-19T22:09:39.548Z,101774.31
2023-04-19T22:12:07.012Z,101776.19
2023-04-19T22:14:34.434Z,101777.56
2023-04-19T22:17:02.939Z,101765.81
2023-04-19T22:19:30.124Z,101772.25
2023-04-19T22:21:57.425Z,101771.16
2023-04-19T22:24:24.800Z,101770.84
2023-04-19T22:26:53.235Z,101774.47
2023-04-19T22:29:20.530Z,101775.56
2023-04-19T22:31:47.829Z,101771.50
2023-04-19T22:34:15.019Z,101773.66
2023-04-19T22:36:41.821Z,101780.28
2023-04-19T22:39:09.162Z,101776.16
2023-04-19T22:41:35.950Z,101770.66
2023-04-19T22:44:03.474Z,101768.34
2023-04-19T22:46:31.020Z,101771.88
2023-04-19T22:48:57.962Z,101774.94
2023-04-19T22:51:24.849Z,101774.84
2023-04-19T22:53:51.532Z,101779.66
2023-04-19T22:56:18.569Z,101772.47
2023-04-19T22:58:45.332Z,101773.56
2023-04-19T23:01:12.117Z,101770.94
2023-04-19T23:03:39.037Z,101780.78
2023-04-19T23:06:07.190Z,101757.47
2023-04-19T23:08:35.387Z,101766.97
2023-04-19T23:11:02.315Z,101768.59
2023-04-19T23:13:29.054Z,101757.56
2023-04-19T23:15:55.906Z,101755.25
2023-04-19T23:18:22.705Z,101758.53
2023-04-19T23:20:49.495Z,101749.41
2023-04-19T23:23:16.256Z,101740.50
2023-04-19T23:25:43.705Z,101749.22
2023-04-19T23:28:12.523Z,101751.31
2023-04-19T23:30:39.540Z,101753.47
2023-04-19T23:33:06.520Z,101756.59
2023-04-19T23:35:33.299Z,101749.88
2023-04-19T23:38:00.164Z,101749.75
2023-04-19T23:40:26.883Z,101755.84
2023-04-19T23:42:53.729Z,101754.50
2023-04-19T23:45:20.601Z,101756.56
2023-04-19T23:47:47.385Z,101741.41
2023-04-19T23:50:14.175Z,101753.41
2023-04-19T23:52:41.079Z,101753.03
2023-04-19T23:55:08.107Z,101750.28
2023-04-19T23:57:35.840Z,101755.13
